x

Halibut Bank (46146) Wave Buoy

6:00 - Mon 22nd Dec 2014 All times are PST. -8 hours from GMT.

  • Sig Wave height 0.7ft
  • Peak Period 3s
  • Wind
    9mph, 11mph gusts
  • Sea Temp 45°f
  • Air Temp 45°f
  • Sea Pressure 1023.8mb
  • Halibut Bank
  • Halibut Bank

More Historic Weather Station data

Upgrade to MSW Pro to gain access to the past 30 days of data for over 8000 Wavebouys and Weather Stations around the globe.

Join Pro

Comparision Forecast

View Surf forecast
   
lun. 12/22 6:00 0.7ft 3s 9 11 mph 1023.8mb 45f 45f
5:00 0.7ft 3s 11
mph
1022.9mb 45f 46f
4:00 0.7ft 3s 11
mph
1022.1mb 45f 46f
3:00 0.7ft 3s 13
mph
1021.5mb 45f 46f
2:00 0.7ft 3s 16 18 mph 1021mb 45f 47f
1:00 0.7ft 3s 11 13 mph 1020mb 45f 47f
12:00 0.7ft 2s 11 13 mph 1019.4mb 45f 47f
dim. 12/21 11:00 0.3ft 6s 13 16 mph 1018.5mb 45f 47f
10:00 0.3ft 2s 4
mph
1017.6mb 44f 47f
9:00 0.3ft 6s 2
mph
1017mb 45f 46f
8:00 0.3ft 2s 7
mph
1015.9mb 45f 47f
7:00 0.3ft 4s 9 11 mph 1015.4mb 45f 48f
6:00 0.3ft 2s 9 13 mph 1014.9mb 45f 47f
5:00 0.3ft 6s 9
mph
1014.7mb 45f 47f
4:00 0.3ft 6s 9
mph
1014.1mb 44f 47f
3:00 0.3ft 2s 9
mph
1013.5mb 44f 46f
2:00 0.3ft 5s 7 9 mph 1012.9mb 44f 46f
1:00 0.3ft 6s 7 9 mph 1012.6mb 46f 47f
12:00 0.3ft 6s 7 9 mph 1012mb 46f 46f
11:00 0.3ft 3s 4
mph
1011.7mb 46f 46f
10:00 0.3ft 3s 4
mph
1011mb 46f 48f
9:00 0.3ft 3s 4
mph
1010.2mb 46f 47f
8:00 0.3ft 7s 2 4 mph 1009mb 46f 47f
7:00 0.7ft 4s 4
mph
1007.5mb 46f 48f
6:00 0.7ft 4s 4 7 mph 1006.1mb 46f 47f
5:00 0.7ft 3s 4 7 mph 1005.3mb 46f 47f
4:00 1ft 3s 9
mph
1004.1mb 46f 47f
3:00 1.3ft 3s 7 9 mph 1003.1mb 46f 47f
2:00 1ft 3s 11 13 mph 1001.8mb 46f 47f
1:00 0.7ft 4s 9 11 mph 1000mb 46f 47f
12:00 1ft 4s 11 13 mph 998.2mb 47f 47f
sam. 12/20 11:00 1.3ft 3s 9
mph
995.6mb 47f 47f
10:00 1.6ft 3s 9 13 mph 993.9mb 47f 46f
9:00 2.5ft 4s 13 18 mph 992.4mb 47f 47f
8:00 2.5ft 4s 18 20 mph 992.1mb 47f 48f
7:00 2.5ft 4s 22 27 mph 991.6mb 47f 47f
6:00 3.5ft 4s 27 34 mph 991.6mb 47f 47f
5:00 3.5ft 4s 29 36 mph 992.2mb 47f 48f
4:00 3ft 4s 27 31 mph 993mb 47f 47f
3:00 2.5ft 4s 27 31 mph 993.7mb 47f 47f
2:00 3ft 4s 22 27 mph 995.1mb 47f 47f
1:00 2.5ft 4s 25 29 mph 996.4mb 47f 46f
12:00 3ft 4s 20 27 mph 997.7mb 47f 47f
11:00 3.5ft 4s 27 31 mph 998.4mb 47f 48f
10:00 4ft 4s 29 36 mph 1000mb 47f 47f
9:00 4ft 4s 29 34 mph 1000.7mb 48f 47f
8:00 4ft 5s 29 36 mph 1000.6mb 48f 46f
7:00 3.5ft 4s 27 34 mph 1001.1mb 48f 46f
6:00 3.5ft 4s 27 31 mph 1001.8mb 48f 47f
5:00 3.5ft 4s 27 31 mph 1002.4mb 48f 46f
4:00 3.5ft 4s 25 29 mph 1003.6mb 48f 47f
3:00 3.5ft 4s 29 34 mph 1004.4mb 48f 47f
2:00 3ft 4s 27 34 mph 1005.1mb 48f 48f
1:00 2.5ft 3s 27 31 mph 1006.3mb 47f 47f
12:00 2.5ft 4s 25 31 mph 1007.6mb 47f 47f
ven. 12/19 11:00 2.5ft 4s 22 27 mph 1009mb 47f 48f
10:00 2.5ft 4s 22 25 mph 1009.4mb 48f 48f
9:00 2.5ft 4s 20 25 mph 1009.7mb 48f 48f
8:00 2ft 4s 18 22 mph 1010.4mb 48f 48f
7:00 2ft 4s 20 25 mph 1011.1mb 47f 48f
6:00 1.6ft 4s 18 22 mph 1011.4mb 47f 48f
5:00 1.6ft 4s 18 20 mph 1011.6mb 47f 47f
4:00 2.5ft 4s 18 22 mph 1011.5mb 47f 47f
3:00 2.5ft 4s 18 22 mph 1011.3mb 47f 47f
2:00 2.5ft 4s 20 25 mph 1010.9mb 47f 47f
1:00 2ft 3s 20 25 mph 1010.9mb 47f 47f
12:00 1.6ft 3s 22 29 mph 1011mb 47f 47f
11:00 1.3ft 3s 20 22 mph 1011.4mb 47f 47f
10:00 1.3ft 3s 16 18 mph 1010.9mb 47f 47f
9:00 1.3ft 3s 13 16 mph 1009.7mb 47f 47f
8:00 1.3ft 3s 13 18 mph 1008.7mb 47f 47f
7:00 1.3ft 3s 13 16 mph 1007.9mb 47f 48f
6:00 1.3ft 3s 18 20 mph 1007.3mb 47f 48f
5:00 1.6ft 3s 18 20 mph 1006.8mb 47f 47f
4:00 1.6ft 3s 16 18 mph 1006.7mb 47f 48f
3:00 1.6ft 4s 18 20 mph 1006.4mb 47f 48f
2:00 2ft 4s 18 20 mph 1005.7mb 47f 49f
1:00 2.5ft 3s 20 22 mph 1005.2mb 47f 48f
12:00 2.5ft 4s 18 20 mph 1004.6mb 47f 48f
jeu. 12/18 11:00 3ft 4s 20 25 mph 1004mb 47f 48f
10:00 3ft 4s 25 27 mph 1003.8mb 47f 48f
9:00 3ft 4s 22 27 mph 1003.7mb 47f 49f
8:00 3ft 4s 25 29 mph 1003.2mb 47f 49f
7:00 3ft 4s 27 34 mph 1003.3mb 47f 49f
6:00 3ft 4s 25 29 mph 1004.4mb 47f 48f
5:00 2.5ft 4s 22 27 mph 1005mb 47f 49f
4:00 2.5ft 4s 22 29 mph 1005.3mb 47f 48f